sensor_id;sensor_type;location;lat;lon;timestamp;P1;durP1;ratioP1;P2;durP2;ratioP2
11982;SDS011;72623;51.184;7.176;2024-02-21T00:01:18;17.10;;;6.70;;
11982;SDS011;72623;51.184;7.176;2024-02-21T00:03:47;15.70;;;7.10;;
11982;SDS011;72623;51.184;7.176;2024-02-21T00:06:14;12.37;;;6.37;;
11982;SDS011;72623;51.184;7.176;2024-02-21T00:08:41;16.60;;;7.20;;
11982;SDS011;72623;51.184;7.176;2024-02-21T00:11:08;14.70;;;5.67;;
11982;SDS011;72623;51.184;7.176;2024-02-21T00:13:34;19.97;;;7.27;;
11982;SDS011;72623;51.184;7.176;2024-02-21T00:16:01;15.27;;;6.10;;
11982;SDS011;72623;51.184;7.176;2024-02-21T00:18:28;20.60;;;6.23;;
11982;SDS011;72623;51.184;7.176;2024-02-21T00:20:55;15.57;;;6.43;;
11982;SDS011;72623;51.184;7.176;2024-02-21T00:23:22;16.67;;;7.03;;
11982;SDS011;72623;51.184;7.176;2024-02-21T00:25:49;16.63;;;7.00;;
11982;SDS011;72623;51.184;7.176;2024-02-21T00:28:15;19.63;;;6.77;;
11982;SDS011;72623;51.184;7.176;2024-02-21T00:30:42;12.90;;;6.20;;
11982;SDS011;72623;51.184;7.176;2024-02-21T00:33:09;14.87;;;6.40;;
11982;SDS011;72623;51.184;7.176;2024-02-21T00:35:36;13.80;;;6.00;;
11982;SDS011;72623;51.184;7.176;2024-02-21T00:38:03;16.50;;;6.67;;
11982;SDS011;72623;51.184;7.176;2024-02-21T00:40:30;16.90;;;6.93;;
11982;SDS011;72623;51.184;7.176;2024-02-21T00:42:57;12.40;;;6.27;;
11982;SDS011;72623;51.184;7.176;2024-02-21T00:45:23;12.00;;;6.03;;
11982;SDS011;72623;51.184;7.176;2024-02-21T00:47:50;17.53;;;6.57;;
11982;SDS011;72623;51.184;7.176;2024-02-21T00:50:17;14.07;;;6.30;;
11982;SDS011;72623;51.184;7.176;2024-02-21T00:52:44;13.50;;;6.27;;
11982;SDS011;72623;51.184;7.176;2024-02-21T00:55:10;17.20;;;6.10;;
11982;SDS011;72623;51.184;7.176;2024-02-21T00:57:37;17.13;;;6.47;;
11982;SDS011;72623;51.184;7.176;2024-02-21T01:00:04;11.50;;;6.13;;
11982;SDS011;72623;51.184;7.176;2024-02-21T01:02:33;19.17;;;6.20;;
11982;SDS011;72623;51.184;7.176;2024-02-21T01:05:00;11.03;;;6.23;;
11982;SDS011;72623;51.184;7.176;2024-02-21T01:07:26;18.17;;;6.70;;
11982;SDS011;72623;51.184;7.176;2024-02-21T01:09:53;14.17;;;6.50;;
11982;SDS011;72623;51.184;7.176;2024-02-21T01:12:20;10.63;;;6.17;;
11982;SDS011;72623;51.184;7.176;2024-02-21T01:14:46;13.30;;;5.93;;
11982;SDS011;72623;51.184;7.176;2024-02-21T01:17:14;14.73;;;6.57;;
11982;SDS011;72623;51.184;7.176;2024-02-21T01:19:41;12.03;;;5.80;;
11982;SDS011;72623;51.184;7.176;2024-02-21T01:22:08;13.27;;;6.07;;
11982;SDS011;72623;51.184;7.176;2024-02-21T01:24:35;15.03;;;5.83;;
11982;SDS011;72623;51.184;7.176;2024-02-21T01:27:01;13.73;;;6.67;;
11982;SDS011;72623;51.184;7.176;2024-02-21T01:29:28;17.77;;;6.43;;
11982;SDS011;72623;51.184;7.176;2024-02-21T01:31:55;11.17;;;6.30;;
11982;SDS011;72623;51.184;7.176;2024-02-21T01:34:22;13.47;;;6.30;;
11982;SDS011;72623;51.184;7.176;2024-02-21T01:36:48;16.27;;;6.93;;
11982;SDS011;72623;51.184;7.176;2024-02-21T01:39:15;15.03;;;6.27;;
11982;SDS011;72623;51.184;7.176;2024-02-21T01:41:42;22.87;;;7.27;;
11982;SDS011;72623;51.184;7.176;2024-02-21T01:44:09;16.17;;;7.03;;
11982;SDS011;72623;51.184;7.176;2024-02-21T01:46:36;13.50;;;5.90;;
11982;SDS011;72623;51.184;7.176;2024-02-21T01:49:03;13.27;;;5.70;;
11982;SDS011;72623;51.184;7.176;2024-02-21T01:51:31;12.03;;;6.93;;
11982;SDS011;72623;51.184;7.176;2024-02-21T01:53:58;13.30;;;6.13;;
11982;SDS011;72623;51.184;7.176;2024-02-21T01:56:25;16.53;;;6.57;;
11982;SDS011;72623;51.184;7.176;2024-02-21T01:58:52;17.23;;;6.40;;
11982;SDS011;72623;51.184;7.176;2024-02-21T02:01:19;13.10;;;6.93;;
11982;SDS011;72623;51.184;7.176;2024-02-21T02:03:45;18.33;;;6.50;;
11982;SDS011;72623;51.184;7.176;2024-02-21T02:06:13;12.00;;;5.93;;
11982;SDS011;72623;51.184;7.176;2024-02-21T02:08:40;15.60;;;6.43;;
11982;SDS011;72623;51.184;7.176;2024-02-21T02:11:08;19.03;;;7.00;;
11982;SDS011;72623;51.184;7.176;2024-02-21T02:13:34;16.97;;;6.63;;
11982;SDS011;72623;51.184;7.176;2024-02-21T02:16:01;13.57;;;6.20;;
11982;SDS011;72623;51.184;7.176;2024-02-21T02:18:28;22.37;;;6.80;;
11982;SDS011;72623;51.184;7.176;2024-02-21T02:20:55;18.00;;;6.43;;
11982;SDS011;72623;51.184;7.176;2024-02-21T02:23:23;13.47;;;6.37;;
11982;SDS011;72623;51.184;7.176;2024-02-21T02:25:57;17.67;;;6.70;;
11982;SDS011;72623;51.184;7.176;2024-02-21T02:28:25;13.80;;;6.27;;
11982;SDS011;72623;51.184;7.176;2024-02-21T02:30:52;23.43;;;6.73;;
11982;SDS011;72623;51.184;7.176;2024-02-21T02:33:19;14.93;;;6.73;;
11982;SDS011;72623;51.184;7.176;2024-02-21T02:35:46;15.13;;;6.13;;
11982;SDS011;72623;51.184;7.176;2024-02-21T02:38:13;22.73;;;6.63;;
11982;SDS011;72623;51.184;7.176;2024-02-21T02:40:40;16.60;;;6.37;;
11982;SDS011;72623;51.184;7.176;2024-02-21T02:43:07;8.90;;;5.47;;
11982;SDS011;72623;51.184;7.176;2024-02-21T02:45:34;12.07;;;6.20;;
11982;SDS011;72623;51.184;7.176;2024-02-21T02:48:01;19.47;;;6.23;;
11982;SDS011;72623;51.184;7.176;2024-02-21T02:50:28;13.20;;;6.80;;
11982;SDS011;72623;51.184;7.176;2024-02-21T02:52:55;16.77;;;6.90;;
11982;SDS011;72623;51.184;7.176;2024-02-21T02:55:22;12.33;;;5.80;;
11982;SDS011;72623;51.184;7.176;2024-02-21T02:57:48;16.90;;;6.37;;
11982;SDS011;72623;51.184;7.176;2024-02-21T03:00:15;12.10;;;6.47;;
11982;SDS011;72623;51.184;7.176;2024-02-21T03:02:43;9.17;;;5.47;;
11982;SDS011;72623;51.184;7.176;2024-02-21T03:05:13;12.03;;;6.67;;
11982;SDS011;72623;51.184;7.176;2024-02-21T03:07:41;18.43;;;6.53;;
11982;SDS011;72623;51.184;7.176;2024-02-21T03:10:08;10.40;;;5.50;;
11982;SDS011;72623;51.184;7.176;2024-02-21T03:12:36;18.40;;;7.30;;
11982;SDS011;72623;51.184;7.176;2024-02-21T03:15:03;15.13;;;6.10;;
11982;SDS011;72623;51.184;7.176;2024-02-21T03:17:31;15.60;;;5.80;;
11982;SDS011;72623;51.184;7.176;2024-02-21T03:19:59;14.07;;;5.80;;
11982;SDS011;72623;51.184;7.176;2024-02-21T03:22:30;10.50;;;5.20;;
11982;SDS011;72623;51.184;7.176;2024-02-21T03:24:58;12.43;;;6.40;;
11982;SDS011;72623;51.184;7.176;2024-02-21T03:27:25;19.80;;;6.40;;
11982;SDS011;72623;51.184;7.176;2024-02-21T03:29:51;16.53;;;5.73;;
11982;SDS011;72623;51.184;7.176;2024-02-21T03:32:18;15.33;;;5.90;;
11982;SDS011;72623;51.184;7.176;2024-02-21T03:34:51;13.60;;;5.67;;
11982;SDS011;72623;51.184;7.176;2024-02-21T03:37:18;11.00;;;5.70;;
11982;SDS011;72623;51.184;7.176;2024-02-21T03:39:45;13.80;;;5.90;;
11982;SDS011;72623;51.184;7.176;2024-02-21T03:42:11;12.27;;;5.43;;
11982;SDS011;72623;51.184;7.176;2024-02-21T03:44:38;16.93;;;6.00;;
11982;SDS011;72623;51.184;7.176;2024-02-21T03:47:05;15.33;;;5.37;;
11982;SDS011;72623;51.184;7.176;2024-02-21T03:49:35;13.30;;;5.33;;
11982;SDS011;72623;51.184;7.176;2024-02-21T03:52:02;10.67;;;5.13;;
11982;SDS011;72623;51.184;7.176;2024-02-21T03:54:29;18.87;;;5.73;;
11982;SDS011;72623;51.184;7.176;2024-02-21T03:56:56;10.93;;;4.90;;
11982;SDS011;72623;51.184;7.176;2024-02-21T03:59:22;14.13;;;5.37;;
11982;SDS011;72623;51.184;7.176;2024-02-21T04:01:52;12.53;;;5.97;;
11982;SDS011;72623;51.184;7.176;2024-02-21T04:04:19;13.90;;;5.30;;
11982;SDS011;72623;51.184;7.176;2024-02-21T04:06:47;10.83;;;4.97;;
11982;SDS011;72623;51.184;7.176;2024-02-21T04:09:14;10.93;;;5.27;;
11982;SDS011;72623;51.184;7.176;2024-02-21T04:11:41;13.77;;;4.93;;
11982;SDS011;72623;51.184;7.176;2024-02-21T04:14:08;13.43;;;5.43;;
11982;SDS011;72623;51.184;7.176;2024-02-21T04:16:36;12.33;;;5.40;;
11982;SDS011;72623;51.184;7.176;2024-02-21T04:21:56;10.60;;;5.07;;
11982;SDS011;72623;51.184;7.176;2024-02-21T04:24:22;14.83;;;5.03;;
11982;SDS011;72623;51.184;7.176;2024-02-21T04:26:49;15.60;;;5.30;;
11982;SDS011;72623;51.184;7.176;2024-02-21T04:29:16;11.67;;;4.83;;
11982;SDS011;72623;51.184;7.176;2024-02-21T04:31:42;11.33;;;4.77;;
11982;SDS011;72623;51.184;7.176;2024-02-21T04:34:10;12.87;;;5.17;;
11982;SDS011;72623;51.184;7.176;2024-02-21T04:36:37;13.40;;;5.37;;
11982;SDS011;72623;51.184;7.176;2024-02-21T04:39:03;11.10;;;4.73;;
11982;SDS011;72623;51.184;7.176;2024-02-21T04:41:30;10.80;;;4.93;;
11982;SDS011;72623;51.184;7.176;2024-02-21T04:43:57;8.43;;;5.07;;
11982;SDS011;72623;51.184;7.176;2024-02-21T04:46:24;13.93;;;4.80;;
11982;SDS011;72623;51.184;7.176;2024-02-21T04:48:50;11.90;;;4.57;;
11982;SDS011;72623;51.184;7.176;2024-02-21T04:51:18;10.53;;;4.90;;
11982;SDS011;72623;51.184;7.176;2024-02-21T04:53:44;13.77;;;5.53;;
11982;SDS011;72623;51.184;7.176;2024-02-21T04:56:11;9.53;;;4.77;;
11982;SDS011;72623;51.184;7.176;2024-02-21T04:58:38;9.07;;;4.37;;
11982;SDS011;72623;51.184;7.176;2024-02-21T05:01:05;12.57;;;4.77;;
11982;SDS011;72623;51.184;7.176;2024-02-21T05:03:32;15.03;;;4.80;;
11982;SDS011;72623;51.184;7.176;2024-02-21T05:05:59;9.13;;;4.90;;
11982;SDS011;72623;51.184;7.176;2024-02-21T05:08:26;8.73;;;4.70;;
11982;SDS011;72623;51.184;7.176;2024-02-21T05:10:53;11.60;;;4.40;;
11982;SDS011;72623;51.184;7.176;2024-02-21T05:13:20;8.43;;;4.50;;
11982;SDS011;72623;51.184;7.176;2024-02-21T05:15:47;11.90;;;4.50;;
11982;SDS011;72623;51.184;7.176;2024-02-21T05:18:18;10.87;;;4.13;;
11982;SDS011;72623;51.184;7.176;2024-02-21T05:20:45;9.77;;;4.70;;
11982;SDS011;72623;51.184;7.176;2024-02-21T05:23:12;10.00;;;4.80;;
11982;SDS011;72623;51.184;7.176;2024-02-21T05:25:39;12.53;;;4.83;;
11982;SDS011;72623;51.184;7.176;2024-02-21T05:28:06;11.67;;;5.13;;
11982;SDS011;72623;51.184;7.176;2024-02-21T05:30:33;10.40;;;4.73;;
11982;SDS011;72623;51.184;7.176;2024-02-21T05:33:04;8.23;;;4.27;;
11982;SDS011;72623;51.184;7.176;2024-02-21T05:35:31;11.27;;;4.47;;
11982;SDS011;72623;51.184;7.176;2024-02-21T05:37:58;16.10;;;4.73;;
11982;SDS011;72623;51.184;7.176;2024-02-21T05:40:25;12.20;;;5.07;;
11982;SDS011;72623;51.184;7.176;2024-02-21T05:42:52;10.43;;;4.90;;
11982;SDS011;72623;51.184;7.176;2024-02-21T05:45:19;9.73;;;4.57;;
11982;SDS011;72623;51.184;7.176;2024-02-21T05:47:45;11.97;;;4.97;;
11982;SDS011;72623;51.184;7.176;2024-02-21T05:50:12;14.57;;;4.63;;
11982;SDS011;72623;51.184;7.176;2024-02-21T05:52:39;10.70;;;4.60;;
11982;SDS011;72623;51.184;7.176;2024-02-21T05:55:06;10.03;;;4.70;;
11982;SDS011;72623;51.184;7.176;2024-02-21T05:57:33;11.73;;;4.70;;
11982;SDS011;72623;51.184;7.176;2024-02-21T06:00:02;10.90;;;4.10;;
11982;SDS011;72623;51.184;7.176;2024-02-21T06:02:31;12.50;;;4.97;;
11982;SDS011;72623;51.184;7.176;2024-02-21T06:04:58;11.77;;;5.77;;
11982;SDS011;72623;51.184;7.176;2024-02-21T06:07:24;11.73;;;4.50;;
11982;SDS011;72623;51.184;7.176;2024-02-21T06:09:51;10.97;;;5.43;;
11982;SDS011;72623;51.184;7.176;2024-02-21T06:12:18;10.57;;;4.60;;
11982;SDS011;72623;51.184;7.176;2024-02-21T06:14:44;10.27;;;4.60;;
11982;SDS011;72623;51.184;7.176;2024-02-21T06:17:20;14.27;;;4.97;;
11982;SDS011;72623;51.184;7.176;2024-02-21T06:19:47;15.13;;;4.77;;
11982;SDS011;72623;51.184;7.176;2024-02-21T06:22:15;12.97;;;4.87;;
11982;SDS011;72623;51.184;7.176;2024-02-21T06:24:42;13.27;;;5.30;;
11982;SDS011;72623;51.184;7.176;2024-02-21T06:27:10;13.47;;;5.13;;
11982;SDS011;72623;51.184;7.176;2024-02-21T06:29:39;10.20;;;4.53;;
11982;SDS011;72623;51.184;7.176;2024-02-21T06:32:06;9.47;;;5.07;;
11982;SDS011;72623;51.184;7.176;2024-02-21T06:34:35;12.30;;;5.17;;
11982;SDS011;72623;51.184;7.176;2024-02-21T06:37:07;10.93;;;5.37;;
11982;SDS011;72623;51.184;7.176;2024-02-21T06:39:37;13.00;;;5.53;;
11982;SDS011;72623;51.184;7.176;2024-02-21T06:42:06;12.90;;;5.13;;
11982;SDS011;72623;51.184;7.176;2024-02-21T06:44:33;11.23;;;4.90;;
11982;SDS011;72623;51.184;7.176;2024-02-21T06:47:05;10.90;;;5.23;;
11982;SDS011;72623;51.184;7.176;2024-02-21T06:49:32;11.00;;;5.00;;
11982;SDS011;72623;51.184;7.176;2024-02-21T06:51:59;7.90;;;4.60;;
11982;SDS011;72623;51.184;7.176;2024-02-21T06:54:26;12.47;;;5.43;;
11982;SDS011;72623;51.184;7.176;2024-02-21T06:56:53;11.00;;;5.40;;
11982;SDS011;72623;51.184;7.176;2024-02-21T06:59:20;15.20;;;5.13;;
11982;SDS011;72623;51.184;7.176;2024-02-21T07:01:53;8.73;;;5.40;;
11982;SDS011;72623;51.184;7.176;2024-02-21T07:04:40;9.97;;;5.10;;
11982;SDS011;72623;51.184;7.176;2024-02-21T07:07:08;14.17;;;5.73;;
11982;SDS011;72623;51.184;7.176;2024-02-21T07:09:35;12.17;;;5.17;;
11982;SDS011;72623;51.184;7.176;2024-02-21T07:12:02;11.43;;;4.97;;
11982;SDS011;72623;51.184;7.176;2024-02-21T07:14:30;12.87;;;5.50;;
11982;SDS011;72623;51.184;7.176;2024-02-21T07:16:58;13.87;;;5.20;;
11982;SDS011;72623;51.184;7.176;2024-02-21T07:19:25;10.83;;;5.27;;
11982;SDS011;72623;51.184;7.176;2024-02-21T07:21:52;11.87;;;4.60;;
11982;SDS011;72623;51.184;7.176;2024-02-21T07:24:26;11.73;;;4.90;;
11982;SDS011;72623;51.184;7.176;2024-02-21T07:26:59;10.23;;;4.70;;
11982;SDS011;72623;51.184;7.176;2024-02-21T07:29:29;7.73;;;4.73;;
11982;SDS011;72623;51.184;7.176;2024-02-21T07:31:56;6.47;;;3.83;;
11982;SDS011;72623;51.184;7.176;2024-02-21T07:34:23;10.20;;;4.07;;
11982;SDS011;72623;51.184;7.176;2024-02-21T07:36:50;9.60;;;4.27;;
11982;SDS011;72623;51.184;7.176;2024-02-21T07:39:17;8.50;;;4.77;;
11982;SDS011;72623;51.184;7.176;2024-02-21T07:41:43;8.60;;;4.47;;
11982;SDS011;72623;51.184;7.176;2024-02-21T07:44:11;4.90;;;3.30;;
11982;SDS011;72623;51.184;7.176;2024-02-21T07:46:38;10.03;;;3.67;;
11982;SDS011;72623;51.184;7.176;2024-02-21T07:49:05;9.80;;;3.93;;
11982;SDS011;72623;51.184;7.176;2024-02-21T07:51:32;7.63;;;4.10;;
11982;SDS011;72623;51.184;7.176;2024-02-21T07:54:00;7.83;;;3.40;;
11982;SDS011;72623;51.184;7.176;2024-02-21T07:56:27;6.30;;;3.43;;
11982;SDS011;72623;51.184;7.176;2024-02-21T07:58:54;5.70;;;3.77;;
11982;SDS011;72623;51.184;7.176;2024-02-21T08:01:21;8.10;;;3.67;;
11982;SDS011;72623;51.184;7.176;2024-02-21T08:03:48;8.30;;;3.90;;
11982;SDS011;72623;51.184;7.176;2024-02-21T08:06:15;10.00;;;3.87;;
11982;SDS011;72623;51.184;7.176;2024-02-21T08:08:41;7.43;;;4.60;;
11982;SDS011;72623;51.184;7.176;2024-02-21T08:11:08;9.20;;;5.20;;
11982;SDS011;72623;51.184;7.176;2024-02-21T08:13:35;10.00;;;5.37;;
11982;SDS011;72623;51.184;7.176;2024-02-21T08:16:02;11.17;;;5.73;;
11982;SDS011;72623;51.184;7.176;2024-02-21T08:18:29;14.70;;;5.60;;
11982;SDS011;72623;51.184;7.176;2024-02-21T08:20:56;17.57;;;7.17;;
11982;SDS011;72623;51.184;7.176;2024-02-21T08:23:23;13.43;;;5.53;;
11982;SDS011;72623;51.184;7.176;2024-02-21T08:25:50;11.63;;;5.60;;
11982;SDS011;72623;51.184;7.176;2024-02-21T08:28:17;11.23;;;5.50;;
11982;SDS011;72623;51.184;7.176;2024-02-21T08:30:44;13.07;;;5.70;;
11982;SDS011;72623;51.184;7.176;2024-02-21T08:33:13;9.03;;;4.17;;
11982;SDS011;72623;51.184;7.176;2024-02-21T08:35:41;11.87;;;4.70;;
11982;SDS011;72623;51.184;7.176;2024-02-21T08:38:08;9.23;;;4.87;;
11982;SDS011;72623;51.184;7.176;2024-02-21T08:40:35;8.20;;;3.97;;
11982;SDS011;72623;51.184;7.176;2024-02-21T08:43:02;13.93;;;3.90;;
11982;SDS011;72623;51.184;7.176;2024-02-21T08:45:29;7.47;;;4.03;;
11982;SDS011;72623;51.184;7.176;2024-02-21T08:47:56;9.17;;;3.33;;
11982;SDS011;72623;51.184;7.176;2024-02-21T08:50:23;6.50;;;3.57;;
11982;SDS011;72623;51.184;7.176;2024-02-21T08:52:50;6.67;;;3.30;;
11982;SDS011;72623;51.184;7.176;2024-02-21T08:55:17;8.97;;;3.57;;
11982;SDS011;72623;51.184;7.176;2024-02-21T08:57:44;7.30;;;3.53;;
11982;SDS011;72623;51.184;7.176;2024-02-21T09:00:11;5.03;;;3.07;;
11982;SDS011;72623;51.184;7.176;2024-02-21T09:02:39;6.77;;;3.03;;
11982;SDS011;72623;51.184;7.176;2024-02-21T09:05:08;7.70;;;3.20;;
11982;SDS011;72623;51.184;7.176;2024-02-21T09:07:35;11.57;;;3.07;;
11982;SDS011;72623;51.184;7.176;2024-02-21T09:10:02;7.23;;;2.80;;
11982;SDS011;72623;51.184;7.176;2024-02-21T09:12:29;7.03;;;3.20;;
11982;SDS011;72623;51.184;7.176;2024-02-21T09:14:56;7.07;;;3.57;;
11982;SDS011;72623;51.184;7.176;2024-02-21T09:17:23;8.50;;;3.57;;
11982;SDS011;72623;51.184;7.176;2024-02-21T09:19:54;8.97;;;3.47;;
11982;SDS011;72623;51.184;7.176;2024-02-21T09:22:24;8.03;;;3.53;;
11982;SDS011;72623;51.184;7.176;2024-02-21T09:24:50;6.27;;;3.17;;
11982;SDS011;72623;51.184;7.176;2024-02-21T09:27:17;8.63;;;3.70;;
11982;SDS011;72623;51.184;7.176;2024-02-21T09:29:44;12.00;;;3.80;;
11982;SDS011;72623;51.184;7.176;2024-02-21T09:32:11;8.57;;;3.90;;
11982;SDS011;72623;51.184;7.176;2024-02-21T09:34:38;9.07;;;3.33;;
11982;SDS011;72623;51.184;7.176;2024-02-21T09:37:06;11.80;;;4.20;;
11982;SDS011;72623;51.184;7.176;2024-02-21T09:39:33;9.37;;;3.53;;
11982;SDS011;72623;51.184;7.176;2024-02-21T09:42:05;9.27;;;3.60;;
11982;SDS011;72623;51.184;7.176;2024-02-21T09:44:36;7.03;;;3.50;;
11982;SDS011;72623;51.184;7.176;2024-02-21T09:47:04;9.67;;;3.67;;
11982;SDS011;72623;51.184;7.176;2024-02-21T09:49:33;8.10;;;3.50;;
11982;SDS011;72623;51.184;7.176;2024-02-21T09:52:04;7.93;;;3.70;;
11982;SDS011;72623;51.184;7.176;2024-02-21T09:54:32;8.80;;;3.90;;
11982;SDS011;72623;51.184;7.176;2024-02-21T09:57:03;8.57;;;3.60;;
11982;SDS011;72623;51.184;7.176;2024-02-21T09:59:31;11.43;;;4.20;;
11982;SDS011;72623;51.184;7.176;2024-02-21T10:01:58;10.90;;;4.07;;
11982;SDS011;72623;51.184;7.176;2024-02-21T10:04:26;11.47;;;4.07;;
11982;SDS011;72623;51.184;7.176;2024-02-21T10:06:53;5.23;;;3.17;;
11982;SDS011;72623;51.184;7.176;2024-02-21T10:09:27;8.50;;;3.80;;
11982;SDS011;72623;51.184;7.176;2024-02-21T10:11:55;9.77;;;4.20;;
11982;SDS011;72623;51.184;7.176;2024-02-21T10:14:22;10.30;;;3.70;;
11982;SDS011;72623;51.184;7.176;2024-02-21T10:16:55;10.57;;;4.00;;
11982;SDS011;72623;51.184;7.176;2024-02-21T10:19:24;6.97;;;3.07;;
11982;SDS011;72623;51.184;7.176;2024-02-21T10:22:03;10.73;;;3.53;;
11982;SDS011;72623;51.184;7.176;2024-02-21T10:24:33;6.70;;;3.50;;
11982;SDS011;72623;51.184;7.176;2024-02-21T10:27:03;9.57;;;4.00;;
11982;SDS011;72623;51.184;7.176;2024-02-21T10:29:33;11.77;;;3.83;;
11982;SDS011;72623;51.184;7.176;2024-02-21T10:32:04;8.33;;;3.60;;
11982;SDS011;72623;51.184;7.176;2024-02-21T10:34:36;10.63;;;3.53;;
11982;SDS011;72623;51.184;7.176;2024-02-21T10:37:06;11.27;;;3.43;;
11982;SDS011;72623;51.184;7.176;2024-02-21T10:39:55;9.53;;;3.60;;
11982;SDS011;72623;51.184;7.176;2024-02-21T10:42:30;9.20;;;4.43;;
11982;SDS011;72623;51.184;7.176;2024-02-21T10:48:21;7.00;;;3.30;;
11982;SDS011;72623;51.184;7.176;2024-02-21T10:51:02;10.17;;;4.00;;
11982;SDS011;72623;51.184;7.176;2024-02-21T10:53:50;7.27;;;3.10;;
11982;SDS011;72623;51.184;7.176;2024-02-21T10:56:36;7.90;;;3.10;;
11982;SDS011;72623;51.184;7.176;2024-02-21T10:59:06;10.37;;;3.17;;
11982;SDS011;72623;51.184;7.176;2024-02-21T11:01:34;10.50;;;4.23;;
11982;SDS011;72623;51.184;7.176;2024-02-21T11:04:01;7.30;;;3.27;;
11982;SDS011;72623;51.184;7.176;2024-02-21T11:06:30;8.20;;;3.60;;
11982;SDS011;72623;51.184;7.176;2024-02-21T11:09:05;7.23;;;3.53;;
11982;SDS011;72623;51.184;7.176;2024-02-21T11:11:38;10.87;;;3.17;;
11982;SDS011;72623;51.184;7.176;2024-02-21T11:14:09;8.73;;;2.87;;
11982;SDS011;72623;51.184;7.176;2024-02-21T11:16:39;10.10;;;3.63;;
11982;SDS011;72623;51.184;7.176;2024-02-21T11:19:07;8.03;;;3.13;;
11982;SDS011;72623;51.184;7.176;2024-02-21T11:21:36;7.93;;;3.27;;
11982;SDS011;72623;51.184;7.176;2024-02-21T11:24:04;8.43;;;2.83;;
11982;SDS011;72623;51.184;7.176;2024-02-21T11:26:31;11.80;;;3.30;;
11982;SDS011;72623;51.184;7.176;2024-02-21T11:31:38;5.70;;;3.43;;
11982;SDS011;72623;51.184;7.176;2024-02-21T11:34:09;8.60;;;3.40;;
11982;SDS011;72623;51.184;7.176;2024-02-21T11:36:46;9.60;;;3.30;;
11982;SDS011;72623;51.184;7.176;2024-02-21T11:39:25;6.03;;;2.83;;
11982;SDS011;72623;51.184;7.176;2024-02-21T11:42:05;4.77;;;2.83;;
11982;SDS011;72623;51.184;7.176;2024-02-21T11:44:36;9.63;;;2.73;;
11982;SDS011;72623;51.184;7.176;2024-02-21T11:47:05;6.83;;;3.00;;
11982;SDS011;72623;51.184;7.176;2024-02-21T11:49:36;7.00;;;2.67;;
11982;SDS011;72623;51.184;7.176;2024-02-21T11:52:09;8.40;;;3.17;;
11982;SDS011;72623;51.184;7.176;2024-02-21T11:54:36;7.77;;;2.90;;
11982;SDS011;72623;51.184;7.176;2024-02-21T11:57:03;9.67;;;3.30;;
11982;SDS011;72623;51.184;7.176;2024-02-21T11:59:30;9.47;;;3.20;;
11982;SDS011;72623;51.184;7.176;2024-02-21T12:01:58;7.60;;;2.90;;
11982;SDS011;72623;51.184;7.176;2024-02-21T12:04:25;7.17;;;2.57;;
11982;SDS011;72623;51.184;7.176;2024-02-21T12:06:52;6.47;;;2.97;;
11982;SDS011;72623;51.184;7.176;2024-02-21T12:09:19;6.33;;;2.80;;
11982;SDS011;72623;51.184;7.176;2024-02-21T12:11:56;9.37;;;3.03;;
11982;SDS011;72623;51.184;7.176;2024-02-21T12:14:24;7.53;;;2.80;;
11982;SDS011;72623;51.184;7.176;2024-02-21T12:16:53;8.93;;;3.20;;
11982;SDS011;72623;51.184;7.176;2024-02-21T12:19:20;8.40;;;2.40;;
11982;SDS011;72623;51.184;7.176;2024-02-21T12:21:48;6.93;;;3.00;;
11982;SDS011;72623;51.184;7.176;2024-02-21T12:24:17;5.90;;;2.37;;
11982;SDS011;72623;51.184;7.176;2024-02-21T12:26:55;8.67;;;3.37;;
11982;SDS011;72623;51.184;7.176;2024-02-21T12:29:23;7.47;;;2.77;;
11982;SDS011;72623;51.184;7.176;2024-02-21T12:31:51;6.30;;;2.50;;
11982;SDS011;72623;51.184;7.176;2024-02-21T12:34:20;8.33;;;2.63;;
11982;SDS011;72623;51.184;7.176;2024-02-21T12:36:49;7.50;;;2.57;;
11982;SDS011;72623;51.184;7.176;2024-02-21T12:39:23;6.60;;;2.73;;
11982;SDS011;72623;51.184;7.176;2024-02-21T12:41:50;6.87;;;2.67;;
11982;SDS011;72623;51.184;7.176;2024-02-21T12:44:16;3.70;;;2.17;;
11982;SDS011;72623;51.184;7.176;2024-02-21T12:46:43;5.50;;;2.77;;
11982;SDS011;72623;51.184;7.176;2024-02-21T12:49:10;5.67;;;2.53;;
11982;SDS011;72623;51.184;7.176;2024-02-21T12:54:13;8.23;;;2.57;;
11982;SDS011;72623;51.184;7.176;2024-02-21T12:56:40;8.03;;;2.43;;
11982;SDS011;72623;51.184;7.176;2024-02-21T12:59:11;7.40;;;2.37;;
11982;SDS011;72623;51.184;7.176;2024-02-21T13:01:38;5.20;;;2.60;;
11982;SDS011;72623;51.184;7.176;2024-02-21T13:04:05;4.93;;;2.37;;
11982;SDS011;72623;51.184;7.176;2024-02-21T13:06:32;14.23;;;2.37;;
11982;SDS011;72623;51.184;7.176;2024-02-21T13:09:00;8.53;;;2.67;;
11982;SDS011;72623;51.184;7.176;2024-02-21T13:11:28;11.73;;;2.63;;
11982;SDS011;72623;51.184;7.176;2024-02-21T13:13:56;11.03;;;2.53;;
11982;SDS011;72623;51.184;7.176;2024-02-21T13:16:22;5.30;;;2.37;;
11982;SDS011;72623;51.184;7.176;2024-02-21T13:18:51;7.80;;;3.57;;
11982;SDS011;72623;51.184;7.176;2024-02-21T13:21:17;5.20;;;2.70;;
11982;SDS011;72623;51.184;7.176;2024-02-21T13:23:44;9.70;;;2.77;;
11982;SDS011;72623;51.184;7.176;2024-02-21T13:26:12;8.77;;;2.63;;
11982;SDS011;72623;51.184;7.176;2024-02-21T13:28:53;7.33;;;2.60;;
11982;SDS011;72623;51.184;7.176;2024-02-21T13:31:20;5.27;;;2.23;;
11982;SDS011;72623;51.184;7.176;2024-02-21T13:33:47;6.23;;;2.57;;
11982;SDS011;72623;51.184;7.176;2024-02-21T13:36:14;4.47;;;1.97;;
11982;SDS011;72623;51.184;7.176;2024-02-21T13:38:40;4.97;;;2.27;;
11982;SDS011;72623;51.184;7.176;2024-02-21T13:41:07;4.53;;;2.57;;
11982;SDS011;72623;51.184;7.176;2024-02-21T13:43:34;8.53;;;2.83;;
11982;SDS011;72623;51.184;7.176;2024-02-21T13:46:01;9.53;;;2.57;;
11982;SDS011;72623;51.184;7.176;2024-02-21T13:48:30;5.53;;;2.53;;
11982;SDS011;72623;51.184;7.176;2024-02-21T13:50:58;5.23;;;2.50;;
11982;SDS011;72623;51.184;7.176;2024-02-21T13:53:27;6.97;;;2.60;;
11982;SDS011;72623;51.184;7.176;2024-02-21T13:56:12;4.47;;;2.47;;
11982;SDS011;72623;51.184;7.176;2024-02-21T13:58:39;8.70;;;2.20;;
11982;SDS011;72623;51.184;7.176;2024-02-21T14:01:05;4.77;;;2.60;;
11982;SDS011;72623;51.184;7.176;2024-02-21T14:03:34;5.20;;;2.40;;
11982;SDS011;72623;51.184;7.176;2024-02-21T14:06:01;6.07;;;2.67;;
11982;SDS011;72623;51.184;7.176;2024-02-21T14:08:28;7.43;;;2.47;;
11982;SDS011;72623;51.184;7.176;2024-02-21T14:10:56;7.13;;;2.20;;
11982;SDS011;72623;51.184;7.176;2024-02-21T14:13:24;7.97;;;2.97;;
11982;SDS011;72623;51.184;7.176;2024-02-21T14:15:50;8.50;;;2.10;;
11982;SDS011;72623;51.184;7.176;2024-02-21T14:18:18;5.07;;;2.43;;
11982;SDS011;72623;51.184;7.176;2024-02-21T14:20:46;6.63;;;2.40;;
11982;SDS011;72623;51.184;7.176;2024-02-21T14:23:12;5.30;;;2.30;;
11982;SDS011;72623;51.184;7.176;2024-02-21T14:25:39;9.23;;;2.30;;
11982;SDS011;72623;51.184;7.176;2024-02-21T14:28:07;6.10;;;3.27;;
11982;SDS011;72623;51.184;7.176;2024-02-21T14:30:34;5.93;;;2.47;;
11982;SDS011;72623;51.184;7.176;2024-02-21T14:33:01;6.30;;;2.60;;
11982;SDS011;72623;51.184;7.176;2024-02-21T14:35:28;4.97;;;2.33;;
11982;SDS011;72623;51.184;7.176;2024-02-21T14:37:54;8.70;;;2.50;;
11982;SDS011;72623;51.184;7.176;2024-02-21T14:40:22;5.40;;;2.30;;
11982;SDS011;72623;51.184;7.176;2024-02-21T14:42:49;7.17;;;2.57;;
11982;SDS011;72623;51.184;7.176;2024-02-21T14:45:17;5.93;;;2.70;;
11982;SDS011;72623;51.184;7.176;2024-02-21T14:47:44;4.87;;;2.50;;
11982;SDS011;72623;51.184;7.176;2024-02-21T14:50:11;7.13;;;2.43;;
11982;SDS011;72623;51.184;7.176;2024-02-21T14:52:38;5.00;;;2.30;;
11982;SDS011;72623;51.184;7.176;2024-02-21T14:55:05;7.70;;;2.10;;
11982;SDS011;72623;51.184;7.176;2024-02-21T14:57:32;5.83;;;2.70;;